createdAt,value
2018-12-22T00:00:33.143Z,980.06
2018-12-22T00:01:33.086Z,980.14
2018-12-22T00:02:33.028Z,980.12
2018-12-22T00:03:32.967Z,980.02
2018-12-22T00:04:32.909Z,980.04
2018-12-22T00:05:32.852Z,980.03
2018-12-22T00:06:32.792Z,980.05
2018-12-22T00:07:32.741Z,979.98
2018-12-22T00:08:32.675Z,980.02
2018-12-22T00:09:32.620Z,980.11
2018-12-22T00:10:34.581Z,980.06
2018-12-22T00:11:32.502Z,980.11
2018-12-22T00:12:32.444Z,980.04
2018-12-22T00:13:32.383Z,980.04
2018-12-22T00:14:32.325Z,980.07
2018-12-22T00:15:32.271Z,980.08
2018-12-22T00:16:32.208Z,980.04
2018-12-22T00:17:32.150Z,980.06
2018-12-22T00:18:32.091Z,980.12
2018-12-22T00:19:32.033Z,980.16
2018-12-22T00:20:31.978Z,980.19
2018-12-22T00:21:31.916Z,980.26
2018-12-22T00:22:31.865Z,980.25
2018-12-22T00:23:31.799Z,980.29
2018-12-22T00:24:31.740Z,980.21
2018-12-22T00:25:31.682Z,980.22
2018-12-22T00:26:31.631Z,980.21
2018-12-22T00:27:31.567Z,980.19
2018-12-22T00:28:31.509Z,980.18
2018-12-22T00:29:31.450Z,980.16
2018-12-22T00:30:31.391Z,980.14
2018-12-22T00:31:31.331Z,980.14
2018-12-22T00:32:31.273Z,980.14
2018-12-22T00:33:31.215Z,980.15
2018-12-22T00:34:31.159Z,980.13
2018-12-22T00:35:31.101Z,980.08
2018-12-22T00:36:31.043Z,980.07
2018-12-22T00:37:30.982Z,980.12
2018-12-22T00:38:30.923Z,980.10
2018-12-22T00:39:30.865Z,980.15
2018-12-22T00:40:30.806Z,980.11
2018-12-22T00:41:30.749Z,980.09
2018-12-22T00:42:30.689Z,980.08
2018-12-22T00:43:30.631Z,980.09
2018-12-22T00:44:30.574Z,980.02
2018-12-22T00:45:30.515Z,980.00
2018-12-22T00:46:30.502Z,980.05
2018-12-22T00:47:30.397Z,980.06
2018-12-22T00:48:30.344Z,980.03
2018-12-22T00:49:30.280Z,980.09
2018-12-22T00:50:30.222Z,980.03
2018-12-22T00:51:30.164Z,980.07
2018-12-22T00:52:30.106Z,980.10
2018-12-22T00:53:30.047Z,980.05
2018-12-22T00:54:29.989Z,980.01
2018-12-22T00:55:29.930Z,980.06
2018-12-22T00:56:29.874Z,979.99
2018-12-22T00:57:29.813Z,980.06
2018-12-22T00:58:30.824Z,980.00
2018-12-22T00:59:29.700Z,980.00
2018-12-22T01:00:29.638Z,979.99
2018-12-22T01:01:29.586Z,980.07
2018-12-22T01:02:29.522Z,980.02
2018-12-22T01:03:29.464Z,980.01
2018-12-22T01:04:29.406Z,979.98
2018-12-22T01:05:29.356Z,980.05
2018-12-22T01:06:29.288Z,980.11
2018-12-22T01:07:29.229Z,980.05
2018-12-22T01:08:29.226Z,980.00
2018-12-22T01:09:29.114Z,980.08
2018-12-22T01:10:29.061Z,980.10
2018-12-22T01:11:28.995Z,980.09
2018-12-22T01:12:28.937Z,980.17
2018-12-22T01:13:28.879Z,980.13
2018-12-22T01:14:28.821Z,980.12
2018-12-22T01:15:28.772Z,980.14
2018-12-22T01:16:28.702Z,980.15
2018-12-22T01:17:28.646Z,980.15
2018-12-22T01:18:28.589Z,980.27
2018-12-22T01:19:28.528Z,980.30
2018-12-22T01:20:28.473Z,980.27
2018-12-22T01:21:28.414Z,980.24
2018-12-22T01:22:28.353Z,980.18
2018-12-22T01:23:28.294Z,980.21
2018-12-22T01:24:28.235Z,980.25
2018-12-22T01:25:28.178Z,980.11
2018-12-22T01:26:28.121Z,980.16
2018-12-22T01:27:28.060Z,980.18
2018-12-22T01:28:28.001Z,980.11
2018-12-22T01:29:27.943Z,980.08
2018-12-22T01:30:27.884Z,980.11
2018-12-22T01:31:27.826Z,980.10
2018-12-22T01:32:27.775Z,980.09
2018-12-22T01:33:27.709Z,980.19
2018-12-22T01:34:27.651Z,980.21
2018-12-22T01:35:27.593Z,980.21
2018-12-22T01:36:27.533Z,980.22
2018-12-22T01:37:27.676Z,980.24
2018-12-22T01:38:27.418Z,980.27
2018-12-22T01:39:27.361Z,980.27
2018-12-22T01:40:27.301Z,980.31
2018-12-22T01:41:27.247Z,980.27
2018-12-22T01:42:27.186Z,980.28
2018-12-22T01:43:27.130Z,980.23
2018-12-22T01:44:27.069Z,980.21
2018-12-22T01:45:27.010Z,980.23
2018-12-22T01:46:26.952Z,980.24
2018-12-22T01:47:26.892Z,980.27
2018-12-22T01:48:26.835Z,980.24
2018-12-22T01:49:26.776Z,980.20
2018-12-22T01:50:26.720Z,980.25
2018-12-22T01:51:26.665Z,980.23
2018-12-22T01:52:26.599Z,980.23
2018-12-22T01:53:26.545Z,980.21
2018-12-22T01:54:26.483Z,980.19
2018-12-22T01:55:26.423Z,980.21
2018-12-22T01:56:26.371Z,980.29
2018-12-22T01:57:26.307Z,980.27
2018-12-22T01:58:26.251Z,980.26
2018-12-22T01:59:26.190Z,980.29
2018-12-22T02:00:26.134Z,980.31
2018-12-22T02:01:26.073Z,980.31
2018-12-22T02:02:26.014Z,980.31
2018-12-22T02:03:25.959Z,980.33
2018-12-22T02:04:25.896Z,980.30
2018-12-22T02:05:25.847Z,980.34
2018-12-22T02:06:25.850Z,980.38
2018-12-22T02:07:25.722Z,980.35
2018-12-22T02:08:25.664Z,980.36
2018-12-22T02:09:25.612Z,980.32
2018-12-22T02:10:25.546Z,980.30
2018-12-22T02:11:25.490Z,980.34
2018-12-22T02:12:25.434Z,980.26
2018-12-22T02:13:25.371Z,980.26
2018-12-22T02:14:25.313Z,980.18
2018-12-22T02:15:25.255Z,980.24
2018-12-22T02:16:25.197Z,980.21
2018-12-22T02:17:25.335Z,980.09
2018-12-22T02:18:25.080Z,980.16
2018-12-22T02:19:25.024Z,980.15
2018-12-22T02:20:24.964Z,980.17
2018-12-22T02:21:24.903Z,980.21
2018-12-22T02:22:24.849Z,980.16
2018-12-22T02:23:24.795Z,980.16
2018-12-22T02:24:24.734Z,980.22
2018-12-22T02:25:24.669Z,980.19
2018-12-22T02:26:24.612Z,980.15
2018-12-22T02:27:24.554Z,980.21
2018-12-22T02:28:24.496Z,980.21
2018-12-22T02:29:24.440Z,980.24
2018-12-22T02:30:24.380Z,980.14
2018-12-22T02:31:24.325Z,980.13
2018-12-22T02:32:24.266Z,980.17
2018-12-22T02:33:24.202Z,980.18
2018-12-22T02:34:24.148Z,980.20
2018-12-22T02:35:24.086Z,980.18
2018-12-22T02:36:24.026Z,980.19
2018-12-22T02:37:23.971Z,980.21
2018-12-22T02:38:23.913Z,980.17
2018-12-22T02:39:23.859Z,980.15
2018-12-22T02:40:23.794Z,980.13
2018-12-22T02:41:23.736Z,980.18
2018-12-22T02:42:23.684Z,980.16
2018-12-22T02:43:23.618Z,980.19
2018-12-22T02:44:23.561Z,980.25
2018-12-22T02:45:23.502Z,980.15
2018-12-22T02:46:23.443Z,980.12
2018-12-22T02:47:23.388Z,980.13
2018-12-22T02:48:23.328Z,980.11
2018-12-22T02:49:23.269Z,980.11
2018-12-22T02:50:23.212Z,980.05
2018-12-22T02:51:23.152Z,979.96
2018-12-22T02:52:23.093Z,979.84
2018-12-22T02:53:23.039Z,979.90
2018-12-22T02:54:22.975Z,979.95
2018-12-22T02:55:22.920Z,979.87
2018-12-22T02:56:22.859Z,979.86
2018-12-22T02:57:22.799Z,979.83
2018-12-22T02:58:22.742Z,979.88
2018-12-22T02:59:22.685Z,979.96
2018-12-22T03:00:22.625Z,979.94
2018-12-22T03:01:22.569Z,979.93
2018-12-22T03:02:22.508Z,979.92
2018-12-22T03:03:22.450Z,979.89
2018-12-22T03:04:22.393Z,979.89
2018-12-22T03:05:22.333Z,979.95
2018-12-22T03:06:22.275Z,979.98
2018-12-22T03:07:22.217Z,979.89
2018-12-22T03:08:22.158Z,979.87
2018-12-22T03:09:22.101Z,979.83
2018-12-22T03:10:22.041Z,979.89
2018-12-22T03:11:21.984Z,979.92
2018-12-22T03:12:21.925Z,979.98
2018-12-22T03:13:21.866Z,980.00
2018-12-22T03:14:21.828Z,980.02
2018-12-22T03:15:21.751Z,980.09
2018-12-22T03:16:21.690Z,980.05
2018-12-22T03:17:21.632Z,980.07
2018-12-22T03:18:21.576Z,980.02
2018-12-22T03:19:21.516Z,980.03
2018-12-22T03:20:21.458Z,979.99
2018-12-22T03:21:21.399Z,980.02
2018-12-22T03:22:21.340Z,979.97
2018-12-22T03:23:21.283Z,980.03
2018-12-22T03:24:21.223Z,979.97
2018-12-22T03:25:21.165Z,979.82
2018-12-22T03:26:21.113Z,979.84
2018-12-22T03:27:21.050Z,979.77
2018-12-22T03:28:20.990Z,979.77
2018-12-22T03:29:20.932Z,979.75
2018-12-22T03:30:20.940Z,979.78
2018-12-22T03:31:20.815Z,979.70
2018-12-22T03:32:20.769Z,979.75
2018-12-22T03:33:20.698Z,979.79
2018-12-22T03:34:20.640Z,979.82
2018-12-22T03:35:20.588Z,979.75
2018-12-22T03:36:20.522Z,979.80
2018-12-22T03:37:20.467Z,979.83
2018-12-22T03:38:20.406Z,979.86
2018-12-22T03:39:20.349Z,979.93
2018-12-22T03:40:20.291Z,979.82
2018-12-22T03:41:20.230Z,979.88
2018-12-22T03:42:20.173Z,979.91
2018-12-22T03:43:20.116Z,979.93
2018-12-22T03:44:20.055Z,979.95
2018-12-22T03:45:19.999Z,979.96
2018-12-22T03:46:19.940Z,979.95
2018-12-22T03:47:19.881Z,979.80
2018-12-22T03:48:19.821Z,979.80
2018-12-22T03:49:19.764Z,979.80
2018-12-22T03:50:19.705Z,979.81
2018-12-22T03:51:19.650Z,979.86
2018-12-22T03:52:19.588Z,979.83
2018-12-22T03:53:19.532Z,979.82
2018-12-22T03:54:19.484Z,979.79
2018-12-22T03:55:19.413Z,979.74
2018-12-22T03:56:19.357Z,979.76
2018-12-22T03:57:19.302Z,979.76
2018-12-22T03:58:19.322Z,979.77
2018-12-22T03:59:24.758Z,979.77
2018-12-22T04:00:19.124Z,979.70
2018-12-22T04:01:19.062Z,979.64
2018-12-22T04:02:19.004Z,979.69
2018-12-22T04:03:18.948Z,979.74
2018-12-22T04:04:18.890Z,979.75
2018-12-22T04:05:18.915Z,979.76
2018-12-22T04:06:18.770Z,979.72
2018-12-22T04:07:18.713Z,979.65
2018-12-22T04:08:18.654Z,979.71
2018-12-22T04:09:18.595Z,979.70
2018-12-22T04:10:18.540Z,979.76
2018-12-22T04:11:18.479Z,979.70
2018-12-22T04:12:18.421Z,979.71
2018-12-22T04:13:18.361Z,979.68
2018-12-22T04:14:18.302Z,979.60
2018-12-22T04:15:18.245Z,979.60
2018-12-22T04:16:18.188Z,979.63
2018-12-22T04:17:18.128Z,979.63
2018-12-22T04:18:18.069Z,979.64
2018-12-22T04:19:18.013Z,979.57
2018-12-22T04:20:17.952Z,979.54
2018-12-22T04:21:17.960Z,979.51
2018-12-22T04:22:17.835Z,979.56
2018-12-22T04:23:17.778Z,979.53
2018-12-22T04:24:17.718Z,979.55
2018-12-22T04:25:17.727Z,979.58
2018-12-22T04:26:17.604Z,979.60
2018-12-22T04:27:17.545Z,979.57
2018-12-22T04:28:17.634Z,979.55
2018-12-22T04:29:17.429Z,979.57
2018-12-22T04:30:17.368Z,979.48
2018-12-22T04:31:17.310Z,979.37
2018-12-22T04:32:17.251Z,979.58
2018-12-22T04:33:17.193Z,979.54
2018-12-22T04:34:17.143Z,979.57
2018-12-22T04:35:17.170Z,979.66
2018-12-22T04:36:17.021Z,979.63
2018-12-22T04:37:16.963Z,979.50
2018-12-22T04:38:16.907Z,979.61
2018-12-22T04:39:16.844Z,979.59
2018-12-22T04:40:16.789Z,979.58
2018-12-22T04:41:16.727Z,979.54
2018-12-22T04:42:16.667Z,979.57
2018-12-22T04:43:16.611Z,979.58
2018-12-22T04:44:16.632Z,979.59
2018-12-22T04:45:16.492Z,979.66
2018-12-22T04:46:16.437Z,979.65
2018-12-22T04:47:16.377Z,979.62
2018-12-22T04:48:16.319Z,979.58
2018-12-22T04:49:16.260Z,979.66
2018-12-22T04:50:16.344Z,979.64
2018-12-22T04:51:16.144Z,979.65
2018-12-22T04:52:16.085Z,979.62
2018-12-22T04:53:16.027Z,979.74
2018-12-22T04:54:15.967Z,979.67
2018-12-22T04:55:15.911Z,979.73
2018-12-22T04:56:15.850Z,979.77
2018-12-22T04:57:15.792Z,979.78
2018-12-22T04:58:15.733Z,979.77
2018-12-22T04:59:15.679Z,979.69
2018-12-22T05:00:15.623Z,979.73
2018-12-22T05:01:15.566Z,979.83
2018-12-22T05:02:15.501Z,979.78
2018-12-22T05:03:15.444Z,979.75
2018-12-22T05:04:15.385Z,979.79
2018-12-22T05:05:15.325Z,979.77
2018-12-22T05:06:15.268Z,979.81
2018-12-22T05:07:15.211Z,979.77
2018-12-22T05:08:15.150Z,979.75
2018-12-22T05:09:15.096Z,979.76
2018-12-22T05:10:15.043Z,979.78
2018-12-22T05:11:14.976Z,979.77
2018-12-22T05:12:14.916Z,979.79
2018-12-22T05:13:14.861Z,979.78
2018-12-22T05:14:14.800Z,979.76
2018-12-22T05:15:14.746Z,979.78
2018-12-22T05:16:14.683Z,979.81
2018-12-22T05:17:14.629Z,979.77
2018-12-22T05:18:14.566Z,979.79
2018-12-22T05:19:14.510Z,979.83
2018-12-22T05:20:15.568Z,979.80
2018-12-22T05:21:14.394Z,979.88
2018-12-22T05:22:14.337Z,979.85
2018-12-22T05:23:14.275Z,979.86
2018-12-22T05:24:14.217Z,979.85
2018-12-22T05:25:14.243Z,979.85
2018-12-22T05:26:14.101Z,979.90
2018-12-22T05:27:14.042Z,979.92
2018-12-22T05:28:13.984Z,979.89
2018-12-22T05:29:13.926Z,979.90
2018-12-22T05:30:13.868Z,979.92
2018-12-22T05:31:13.809Z,979.90
2018-12-22T05:32:13.749Z,979.94
2018-12-22T05:33:13.693Z,979.96
2018-12-22T05:34:13.634Z,979.96
2018-12-22T05:35:13.577Z,979.98
2018-12-22T05:36:13.516Z,980.01
2018-12-22T05:37:13.461Z,980.06
2018-12-22T05:38:13.404Z,980.00
2018-12-22T05:39:13.344Z,980.06
2018-12-22T05:40:13.284Z,980.01
2018-12-22T05:41:13.224Z,980.11
2018-12-22T05:42:13.174Z,980.08
2018-12-22T05:43:13.114Z,980.09
2018-12-22T05:44:13.049Z,980.15
2018-12-22T05:45:12.998Z,980.06
2018-12-22T05:46:12.940Z,980.14
2018-12-22T05:47:12.880Z,980.14
2018-12-22T05:48:12.820Z,980.04
2018-12-22T05:49:12.758Z,980.13
2018-12-22T05:50:12.705Z,980.05
2018-12-22T05:51:12.647Z,980.20
2018-12-22T05:52:15.298Z,980.18
2018-12-22T05:53:12.525Z,980.23
2018-12-22T05:54:12.492Z,980.27
2018-12-22T05:55:12.410Z,980.22
2018-12-22T05:56:12.349Z,980.21
2018-12-22T05:57:12.292Z,980.24
2018-12-22T05:58:12.234Z,980.27
2018-12-22T05:59:12.177Z,980.33
2018-12-22T06:00:12.116Z,980.30
2018-12-22T06:01:12.058Z,980.30
2018-12-22T06:02:12.069Z,980.30
2018-12-22T06:03:11.952Z,980.34
2018-12-22T06:04:11.883Z,980.40
2018-12-22T06:05:11.824Z,980.38
2018-12-22T06:06:11.774Z,980.36
2018-12-22T06:07:11.713Z,980.39
2018-12-22T06:08:11.650Z,980.35
2018-12-22T06:09:11.593Z,980.47
2018-12-22T06:10:11.534Z,980.48
2018-12-22T06:11:11.476Z,980.46
2018-12-22T06:12:11.420Z,980.52
2018-12-22T06:13:11.363Z,980.47
2018-12-22T06:14:11.300Z,980.51
2018-12-22T06:15:11.245Z,980.51
2018-12-22T06:16:11.187Z,980.56
2018-12-22T06:17:11.221Z,980.61
2018-12-22T06:18:11.068Z,980.70
2018-12-22T06:19:11.011Z,980.64
2018-12-22T06:20:10.955Z,980.68
2018-12-22T06:21:10.894Z,980.76
2018-12-22T06:22:10.834Z,980.73
2018-12-22T06:23:10.778Z,980.80
2018-12-22T06:24:10.721Z,980.79
2018-12-22T06:25:10.662Z,980.95
2018-12-22T06:26:10.601Z,981.02
2018-12-22T06:27:10.542Z,981.06
2018-12-22T06:28:10.483Z,981.15
2018-12-22T06:29:10.425Z,981.12
2018-12-22T06:30:10.373Z,981.09
2018-12-22T06:31:10.309Z,981.11
2018-12-22T06:32:10.254Z,981.11
2018-12-22T06:33:10.193Z,981.18
2018-12-22T06:34:10.134Z,981.16
2018-12-22T06:35:10.077Z,981.16
2018-12-22T06:36:10.019Z,981.22
2018-12-22T06:37:09.960Z,981.13
2018-12-22T06:38:09.903Z,981.15
2018-12-22T06:39:09.843Z,981.14
2018-12-22T06:40:09.785Z,981.21
2018-12-22T06:41:09.726Z,981.20
2018-12-22T06:42:09.668Z,981.25
2018-12-22T06:43:09.610Z,981.20
2018-12-22T06:44:09.551Z,981.34
2018-12-22T06:45:09.505Z,981.33
2018-12-22T06:46:09.437Z,981.35
2018-12-22T06:47:09.381Z,981.35
2018-12-22T06:48:09.321Z,981.37
2018-12-22T06:49:09.261Z,981.38
2018-12-22T06:50:09.204Z,981.43
2018-12-22T06:51:09.144Z,981.39
2018-12-22T06:52:09.085Z,981.37
2018-12-22T06:53:09.028Z,981.33
2018-12-22T06:54:08.969Z,981.35
2018-12-22T06:55:08.911Z,981.49
2018-12-22T06:56:08.851Z,981.45
2018-12-22T06:57:08.796Z,981.48
2018-12-22T06:58:08.735Z,981.56
2018-12-22T06:59:08.678Z,981.43
2018-12-22T07:00:08.623Z,981.48
2018-12-22T07:01:08.560Z,981.41
2018-12-22T07:02:08.502Z,981.51
2018-12-22T07:03:08.444Z,981.48
2018-12-22T07:04:08.385Z,981.54
2018-12-22T07:05:08.328Z,981.54
2018-12-22T07:06:08.269Z,981.54
2018-12-22T07:07:08.213Z,981.59
2018-12-22T07:08:08.152Z,981.60
2018-12-22T07:09:08.095Z,981.60
2018-12-22T07:10:08.039Z,981.62
2018-12-22T07:11:07.983Z,981.51
2018-12-22T07:12:07.920Z,981.47
2018-12-22T07:13:07.860Z,981.54
2018-12-22T07:14:07.804Z,981.53
2018-12-22T07:15:07.747Z,981.55
2018-12-22T07:16:07.686Z,981.56
2018-12-22T07:17:07.627Z,981.54
2018-12-22T07:18:07.574Z,981.54
2018-12-22T07:19:07.512Z,981.52
2018-12-22T07:20:07.453Z,981.56
2018-12-22T07:21:07.395Z,981.60
2018-12-22T07:22:07.341Z,981.59
2018-12-22T07:23:07.281Z,981.59
2018-12-22T07:24:07.219Z,981.67
2018-12-22T07:25:07.161Z,981.74
2018-12-22T07:26:07.103Z,981.74
2018-12-22T07:27:07.045Z,981.82
2018-12-22T07:28:06.986Z,981.84
2018-12-22T07:29:06.929Z,981.90
2018-12-22T07:30:06.870Z,981.93
2018-12-22T07:31:06.818Z,981.97
2018-12-22T07:32:06.753Z,981.98
2018-12-22T07:33:06.696Z,982.08
2018-12-22T07:34:06.638Z,982.05
2018-12-22T07:35:06.578Z,982.15
2018-12-22T07:36:06.520Z,982.16
2018-12-22T07:37:06.470Z,982.25
2018-12-22T07:38:06.408Z,982.29
2018-12-22T07:39:06.345Z,982.24
2018-12-22T07:40:06.286Z,982.30
2018-12-22T07:41:06.228Z,982.18
2018-12-22T07:42:06.171Z,982.19
2018-12-22T07:43:06.112Z,982.20
2018-12-22T07:44:06.054Z,982.21
2018-12-22T07:45:05.996Z,982.31
2018-12-22T07:46:05.942Z,982.42
2018-12-22T07:47:05.879Z,982.67
2018-12-22T07:48:05.820Z,982.79
2018-12-22T07:49:05.771Z,982.72
2018-12-22T07:50:05.706Z,982.70
2018-12-22T07:51:05.646Z,982.54
2018-12-22T07:52:05.593Z,982.41
2018-12-22T07:53:05.531Z,982.51
2018-12-22T07:54:05.471Z,982.52
2018-12-22T07:55:05.416Z,982.34
2018-12-22T07:56:05.356Z,982.51
2018-12-22T07:57:05.302Z,982.66
2018-12-22T07:58:05.238Z,982.60
2018-12-22T07:59:05.180Z,982.51
2018-12-22T08:00:05.127Z,982.48
2018-12-22T08:01:05.063Z,982.41
2018-12-22T08:02:05.013Z,982.39
2018-12-22T08:03:04.947Z,982.41
2018-12-22T08:04:04.888Z,982.39
2018-12-22T08:05:04.831Z,982.48
2018-12-22T08:06:04.771Z,982.41
2018-12-22T08:07:04.714Z,982.43
2018-12-22T08:08:04.654Z,982.45
2018-12-22T08:09:04.601Z,982.53
2018-12-22T08:10:04.543Z,982.43
2018-12-22T08:11:04.484Z,982.54
2018-12-22T08:12:04.421Z,982.62
2018-12-22T08:13:04.368Z,982.60
2018-12-22T08:14:04.308Z,982.62
2018-12-22T08:15:04.249Z,982.68
2018-12-22T08:16:04.193Z,982.69
2018-12-22T08:17:04.129Z,982.71
2018-12-22T08:18:04.072Z,982.71
2018-12-22T08:19:04.013Z,982.68
2018-12-22T08:20:03.958Z,982.69
2018-12-22T08:21:03.897Z,982.66
2018-12-22T08:22:03.840Z,982.68
2018-12-22T08:23:03.780Z,982.70
2018-12-22T08:24:03.722Z,982.64
2018-12-22T08:25:03.665Z,982.79
2018-12-22T08:26:03.606Z,982.87
2018-12-22T08:27:03.548Z,982.93
2018-12-22T08:28:03.489Z,982.83
2018-12-22T08:29:03.433Z,982.90
2018-12-22T08:30:03.373Z,982.88
2018-12-22T08:31:03.314Z,982.81
2018-12-22T08:32:03.257Z,982.88
2018-12-22T08:33:03.203Z,982.80
2018-12-22T08:34:03.141Z,982.83
2018-12-22T08:35:03.082Z,982.72
2018-12-22T08:36:03.028Z,982.70
2018-12-22T08:37:02.963Z,982.76
2018-12-22T08:38:02.906Z,982.69
2018-12-22T08:39:02.941Z,982.72
2018-12-22T08:40:02.790Z,982.82
2018-12-22T08:41:02.732Z,982.81
2018-12-22T08:42:02.678Z,982.87
2018-12-22T08:43:02.616Z,982.93
2018-12-22T08:44:02.560Z,983.01
2018-12-22T08:45:02.499Z,982.95
2018-12-22T08:46:02.443Z,983.01
2018-12-22T08:47:02.381Z,983.04
2018-12-22T08:48:02.323Z,982.99
2018-12-22T08:49:02.265Z,983.00
2018-12-22T08:50:09.121Z,983.02
2018-12-22T08:51:02.809Z,983.14
2018-12-22T08:52:02.096Z,983.07
2018-12-22T08:53:02.031Z,983.10
2018-12-22T08:54:01.974Z,983.16
2018-12-22T08:55:01.923Z,983.17
2018-12-22T08:56:01.856Z,983.22
2018-12-22T08:57:01.799Z,983.28
2018-12-22T08:58:01.744Z,983.26
2018-12-22T08:59:01.684Z,983.17
2018-12-22T09:00:01.625Z,983.31
2018-12-22T09:01:01.565Z,983.40
2018-12-22T09:02:01.510Z,983.40
2018-12-22T09:03:01.451Z,983.43
2018-12-22T09:04:01.391Z,983.48
2018-12-22T09:05:01.335Z,983.52
2018-12-22T09:06:01.273Z,983.48
2018-12-22T09:07:01.218Z,983.51
2018-12-22T09:08:01.158Z,983.55
2018-12-22T09:09:01.106Z,983.53
2018-12-22T09:10:01.128Z,983.52
2018-12-22T09:11:00.982Z,983.56
2018-12-22T09:12:00.924Z,983.64
2018-12-22T09:13:00.867Z,983.68
2018-12-22T09:14:00.807Z,983.69
2018-12-22T09:15:00.750Z,983.64
2018-12-22T09:16:00.749Z,983.64
2018-12-22T09:17:00.632Z,983.68
2018-12-22T09:18:00.574Z,983.72
2018-12-22T09:19:00.606Z,983.56
2018-12-22T09:20:00.456Z,983.58
2018-12-22T09:21:00.398Z,983.68
2018-12-22T09:22:00.343Z,983.62
2018-12-22T09:23:00.285Z,983.63
2018-12-22T09:24:00.228Z,983.77
2018-12-22T09:25:00.166Z,983.78
2018-12-22T09:26:00.110Z,983.76
2018-12-22T09:27:00.051Z,983.65
2018-12-22T09:27:59.991Z,983.80
2018-12-22T09:28:59.932Z,983.82
2018-12-22T09:29:59.876Z,983.85
2018-12-22T09:31:00.852Z,983.82
2018-12-22T09:31:59.758Z,983.92
2018-12-22T09:32:59.699Z,983.94
2018-12-22T09:33:59.645Z,983.99
2018-12-22T09:34:59.582Z,984.01
2018-12-22T09:35:59.524Z,984.04
2018-12-22T09:36:59.467Z,984.02
2018-12-22T09:37:59.408Z,984.14
2018-12-22T09:38:59.350Z,984.11
2018-12-22T09:39:59.346Z,984.09
2018-12-22T09:40:59.236Z,984.09
2018-12-22T09:41:59.178Z,984.01
2018-12-22T09:42:59.116Z,984.08
2018-12-22T09:43:59.059Z,984.12
2018-12-22T09:44:59.001Z,984.16
2018-12-22T09:45:58.942Z,984.19
2018-12-22T09:46:58.885Z,984.09
2018-12-22T09:47:58.827Z,984.05
2018-12-22T09:48:58.767Z,984.15
2018-12-22T09:49:58.712Z,984.18
2018-12-22T09:50:58.650Z,984.21
2018-12-22T09:51:58.677Z,984.20
2018-12-22T09:52:58.537Z,984.31
2018-12-22T09:53:58.475Z,984.27
2018-12-22T09:54:58.436Z,984.30
2018-12-22T09:55:58.359Z,984.45
2018-12-22T09:56:58.303Z,984.38
2018-12-22T09:57:58.244Z,984.35
2018-12-22T09:58:58.184Z,984.41
2018-12-22T09:59:58.125Z,984.43
2018-12-22T10:00:58.070Z,984.45
2018-12-22T10:01:58.010Z,984.45
2018-12-22T10:02:57.955Z,984.41
2018-12-22T10:03:57.893Z,984.46
2018-12-22T10:04:57.835Z,984.35
2018-12-22T10:05:57.778Z,984.48
2018-12-22T10:06:57.720Z,984.42
2018-12-22T10:07:57.672Z,984.49
2018-12-22T10:08:57.604Z,984.45
2018-12-22T10:09:57.545Z,984.36
2018-12-22T10:10:57.486Z,984.41
2018-12-22T10:11:57.536Z,984.45
2018-12-22T10:12:57.368Z,984.49
2018-12-22T10:13:57.311Z,984.36
2018-12-22T10:14:57.253Z,984.46
2018-12-22T10:15:57.194Z,984.45
2018-12-22T10:16:57.140Z,984.37
2018-12-22T10:17:57.082Z,984.49
2018-12-22T10:18:57.020Z,984.46
2018-12-22T10:19:56.962Z,984.45
2018-12-22T10:20:56.904Z,984.45
2018-12-22T10:21:56.844Z,984.51
2018-12-22T10:22:56.786Z,984.50
2018-12-22T10:23:56.730Z,984.54
2018-12-22T10:24:56.670Z,984.46
2018-12-22T10:25:56.614Z,984.58
2018-12-22T10:26:56.553Z,984.58
2018-12-22T10:27:56.495Z,984.57
2018-12-22T10:28:56.437Z,984.63
2018-12-22T10:29:56.475Z,984.61
2018-12-22T10:30:56.320Z,984.64
2018-12-22T10:31:56.263Z,984.67
2018-12-22T10:32:56.204Z,984.59
2018-12-22T10:33:56.147Z,984.62
2018-12-22T10:34:56.088Z,984.56
2018-12-22T10:35:56.032Z,984.61
2018-12-22T10:36:55.970Z,984.40
2018-12-22T10:37:55.913Z,984.61
2018-12-22T10:38:55.854Z,984.60
2018-12-22T10:39:55.799Z,984.61
2018-12-22T10:40:55.738Z,984.56
2018-12-22T10:41:55.727Z,984.65
2018-12-22T10:42:55.622Z,984.64
2018-12-22T10:43:55.565Z,984.65
2018-12-22T10:44:55.505Z,984.75
2018-12-22T10:45:55.447Z,984.68
2018-12-22T10:46:55.393Z,984.65
2018-12-22T10:47:55.335Z,984.64
2018-12-22T10:48:55.274Z,984.68
2018-12-22T10:49:55.217Z,984.67
2018-12-22T10:50:55.156Z,984.78
2018-12-22T10:51:55.099Z,984.78
2018-12-22T10:52:55.040Z,984.66
2018-12-22T10:53:54.983Z,984.78
2018-12-22T10:54:54.928Z,984.68
2018-12-22T10:55:54.869Z,984.74
2018-12-22T10:56:54.807Z,984.78
2018-12-22T10:57:54.748Z,984.59
2018-12-22T10:58:54.690Z,984.71
2018-12-22T10:59:54.636Z,984.68
2018-12-22T11:00:54.575Z,984.69
2018-12-22T11:01:54.515Z,984.68
2018-12-22T11:02:54.457Z,984.71
2018-12-22T11:03:54.400Z,984.66
2018-12-22T11:04:54.340Z,984.68
2018-12-22T11:05:54.282Z,984.57
2018-12-22T11:06:54.224Z,984.65
2018-12-22T11:07:54.168Z,984.71
2018-12-22T11:08:54.108Z,984.61
2018-12-22T11:09:54.056Z,984.58
2018-12-22T11:10:53.996Z,984.47
2018-12-22T11:11:53.932Z,984.56
2018-12-22T11:12:53.877Z,984.55
2018-12-22T11:13:53.816Z,984.49
2018-12-22T11:14:53.759Z,984.64
2018-12-22T11:15:53.700Z,984.56
2018-12-22T11:16:53.646Z,984.63
2018-12-22T11:17:53.583Z,984.63
2018-12-22T11:18:53.528Z,984.68
2018-12-22T11:19:53.470Z,984.66
2018-12-22T11:20:53.408Z,984.71
2018-12-22T11:21:53.350Z,984.60
2018-12-22T11:22:53.292Z,984.63
2018-12-22T11:23:53.233Z,984.62
2018-12-22T11:24:53.175Z,984.72
2018-12-22T11:25:53.118Z,984.66
2018-12-22T11:26:53.059Z,984.61
2018-12-22T11:27:53.002Z,984.54
2018-12-22T11:28:52.942Z,984.53
2018-12-22T11:29:52.884Z,984.42
2018-12-22T11:30:52.829Z,984.41
2018-12-22T11:31:52.767Z,984.50
2018-12-22T11:32:52.710Z,984.55
2018-12-22T11:33:52.659Z,984.53
2018-12-22T11:34:52.595Z,984.57
2018-12-22T11:35:52.534Z,984.48
2018-12-22T11:36:52.479Z,984.57
2018-12-22T11:37:52.420Z,984.53
2018-12-22T11:38:52.360Z,984.54
2018-12-22T11:39:52.302Z,984.62
2018-12-22T11:40:52.243Z,984.59
2018-12-22T11:41:52.185Z,984.52
2018-12-22T11:42:52.129Z,984.49
2018-12-22T11:43:52.069Z,984.46
2018-12-22T11:44:52.011Z,984.46
2018-12-22T11:45:51.955Z,984.48
2018-12-22T11:46:51.896Z,984.50
2018-12-22T11:47:51.836Z,984.49
2018-12-22T11:48:51.780Z,984.55
2018-12-22T11:49:51.720Z,984.52
2018-12-22T11:50:51.662Z,984.55
2018-12-22T11:51:51.604Z,984.52
2018-12-22T11:52:51.547Z,984.66
2018-12-22T11:53:51.491Z,984.69
2018-12-22T11:54:51.600Z,984.78
2018-12-22T11:55:51.371Z,984.80
2018-12-22T11:56:51.318Z,984.69
2018-12-22T11:57:51.255Z,984.67
2018-12-22T11:58:51.199Z,984.80
2018-12-22T11:59:51.137Z,984.76
2018-12-22T12:00:51.080Z,984.72
2018-12-22T12:01:51.022Z,984.65
2018-12-22T12:02:50.967Z,984.75
2018-12-22T12:03:50.906Z,984.77
2018-12-22T12:04:50.848Z,984.74
2018-12-22T12:05:50.790Z,984.76
2018-12-22T12:06:50.730Z,984.70
2018-12-22T12:07:50.673Z,984.80
2018-12-22T12:08:50.613Z,984.78
2018-12-22T12:09:50.558Z,984.90
2018-12-22T12:10:50.500Z,984.75
2018-12-22T12:11:50.439Z,984.79
2018-12-22T12:12:50.381Z,984.86
2018-12-22T12:13:50.323Z,984.83
2018-12-22T12:14:50.266Z,984.75
2018-12-22T12:15:50.207Z,984.85
2018-12-22T12:16:50.153Z,984.80
2018-12-22T12:17:50.096Z,984.87
2018-12-22T12:18:50.045Z,984.84
2018-12-22T12:19:49.975Z,984.87
2018-12-22T12:20:49.921Z,984.89
2018-12-22T12:21:49.859Z,984.83
2018-12-22T12:22:49.803Z,984.90
2018-12-22T12:23:49.760Z,984.89
2018-12-22T12:24:49.690Z,985.05
2018-12-22T12:25:49.629Z,984.98
2018-12-22T12:26:49.568Z,985.00
2018-12-22T12:27:49.509Z,984.98